Time;durP1;ratioP1;P1;durP2;ratioP2;P2;SDS_P1;SDS_P2;PMS_P1;PMS_P2;Temp;Humidity;BMP_temperature;BMP_pressure;BME280_temperature;BME280_humidity;BME280_pressure;Samples;Min_cycle;Max_cycle;Signal;HPM_P1;HPM_P2
2023/02/02 00:01:47;;;;;;;4.20;2.97;;;;;;;4.29;100.00;152465.00;4957043;28;20473;-78
2023/02/02 00:04:18;;;;;;;7.40;3.47;;;;;;;4.26;100.00;152457.31;4958554;29;20453;-78
2023/02/02 00:06:45;;;;;;;5.73;2.60;;;;;;;4.22;100.00;152447.00;4937868;29;20472;-78
2023/02/02 00:09:13;;;;;;;6.03;3.10;;;;;;;4.29;100.00;152465.00;4963694;28;20468;-78
2023/02/02 00:11:40;;;;;;;3.27;2.70;;;;;;;4.24;100.00;152452.13;4964653;28;20873;-78
2023/02/02 00:14:07;;;;;;;7.00;2.57;;;;;;;4.21;100.00;152444.41;4959065;28;20457;-78
2023/02/02 00:16:39;;;;;;;4.10;2.40;;;;;;;4.22;100.00;152448.28;4966380;28;20812;-78
2023/02/02 00:19:08;;;;;;;6.40;2.50;;;;;;;4.23;100.00;152449.59;4953165;28;20535;-78
2023/02/02 00:21:37;;;;;;;5.63;2.70;;;;;;;4.19;100.00;152439.25;4941176;29;20536;-78
2023/02/02 00:24:04;;;;;;;4.97;2.93;;;;;;;4.22;100.00;152447.00;4958503;28;20448;-78
2023/02/02 00:26:31;;;;;;;4.50;2.30;;;;;;;4.18;100.00;152437.97;4957551;28;20828;-78
2023/02/02 00:28:58;;;;;;;6.20;2.80;;;;;;;4.16;100.00;152431.53;4938397;28;20651;-78
2023/02/02 00:31:25;;;;;;;3.80;2.53;;;;;;;4.16;100.00;152431.53;4959296;29;20535;-78
2023/02/02 00:33:51;;;;;;;5.27;3.00;;;;;;;4.15;100.00;152428.97;4960014;28;20473;-78
2023/02/02 00:36:19;;;;;;;5.00;2.90;;;;;;;4.14;100.00;152426.38;4954718;28;20489;-78
2023/02/02 00:38:48;;;;;;;5.50;2.53;;;;;;;4.16;100.00;152431.53;4956047;28;20547;-78
2023/02/02 00:41:15;;;;;;;5.10;2.90;;;;;;;4.15;100.00;152428.97;4957185;28;20524;-78
2023/02/02 00:43:41;;;;;;;5.83;2.50;;;;;;;4.20;100.00;152441.84;4956977;28;20482;-77
2023/02/02 00:46:09;;;;;;;4.70;2.93;;;;;;;4.18;100.00;152437.97;4958242;28;20644;-78
2023/02/02 00:48:36;;;;;;;5.17;3.10;;;;;;;4.19;100.00;152440.56;4967953;28;20854;-78
2023/02/02 00:51:03;;;;;;;4.43;2.60;;;;;;;4.18;100.00;152436.72;4965110;28;20995;-78
2023/02/02 00:53:30;;;;;;;5.57;2.30;;;;;;;4.21;100.00;152444.41;4965003;28;20469;-78
2023/02/02 00:55:58;;;;;;;5.13;2.70;;;;;;;4.20;100.00;152443.16;4939253;28;20489;-78
2023/02/02 00:58:24;;;;;;;4.37;2.57;;;;;;;4.21;100.00;152444.41;4940064;29;20469;-78
2023/02/02 01:00:51;;;;;;;5.30;2.90;;;;;;;4.26;100.00;152457.31;4956911;29;20462;-78
2023/02/02 01:03:18;;;;;;;3.73;2.53;;;;;;;4.27;100.00;152459.88;4938901;29;20567;-78
2023/02/02 01:05:45;;;;;;;3.30;2.57;;;;;;;4.37;100.00;152485.63;4941082;29;20463;-78
2023/02/02 01:08:12;;;;;;;4.90;2.00;;;;;;;4.35;100.00;152480.47;4939119;29;20489;-78
2023/02/02 01:10:39;;;;;;;3.50;2.40;;;;;;;4.36;100.00;152483.06;4954378;28;20506;-78
2023/02/02 01:13:07;;;;;;;3.00;1.80;;;;;;;4.36;100.00;152481.78;4956486;28;20870;-78
2023/02/02 01:15:34;;;;;;;4.00;2.30;;;;;;;4.43;100.00;152501.09;4956192;28;20466;-78
2023/02/02 01:18:00;;;;;;;3.50;2.00;;;;;;;4.39;100.00;152490.81;4938729;29;20518;-78
2023/02/02 01:20:28;;;;;;;4.23;2.23;;;;;;;4.47;100.00;152511.41;4951527;28;20917;-78
2023/02/02 01:22:55;;;;;;;6.13;1.90;;;;;;;4.49;100.00;152516.56;4935440;28;20462;-78
2023/02/02 01:25:22;;;;;;;3.47;2.10;;;;;;;4.46;100.00;152508.81;4954609;28;20549;-78
2023/02/02 01:27:48;;;;;;;2.73;2.30;;;;;;;4.46;100.00;152508.81;4954845;28;20875;-78
2023/02/02 01:30:16;;;;;;;1.97;1.50;;;;;;;4.48;100.00;152513.97;4954507;28;21041;-78
2023/02/02 01:32:43;;;;;;;3.63;1.77;;;;;;;4.51;100.00;152520.41;4972236;28;20500;-78
2023/02/02 01:35:10;;;;;;;3.07;2.00;;;;;;;4.47;100.00;152510.13;5001143;28;20442;-78
2023/02/02 01:37:36;;;;;;;5.03;2.40;;;;;;;4.45;100.00;152504.97;4958127;28;20471;-78
2023/02/02 01:40:04;;;;;;;3.63;1.93;;;;;;;4.48;100.00;152513.97;4996711;28;20544;-78
2023/02/02 01:42:31;;;;;;;3.07;1.67;;;;;;;4.49;100.00;152515.25;4971813;28;20459;-78
2023/02/02 01:45:27;;;;;;;6.50;2.30;;;;;;;4.47;100.00;152511.41;4987048;28;20454;-78
2023/02/02 01:47:55;;;;;;;4.37;1.90;;;;;;;4.47;100.00;152511.41;4922282;28;20825;-78
2023/02/02 01:50:27;;;;;;;5.00;1.53;;;;;;;4.45;100.00;152506.22;4985128;28;20454;-78
2023/02/02 01:52:55;;;;;;;4.97;1.90;;;;;;;4.46;100.00;152508.81;4956299;28;20440;-78
2023/02/02 01:55:23;;;;;;;2.83;1.80;;;;;;;4.51;100.00;152521.69;4983659;28;20458;-78
2023/02/02 01:57:53;;;;;;;3.13;1.60;;;;;;;4.48;100.00;152513.97;4986110;28;20486;-78
2023/02/02 02:00:24;;;;;;;2.60;1.77;;;;;;;4.44;100.00;152503.69;4959536;28;20438;-78
2023/02/02 02:02:53;;;;;;;4.33;1.90;;;;;;;4.48;100.00;152513.97;4974065;28;20446;-78
2023/02/02 02:05:26;;;;;;;3.80;1.90;;;;;;;4.49;100.00;152515.25;4966809;28;20452;-78
2023/02/02 02:07:54;;;;;;;4.70;2.10;;;;;;;4.47;100.00;152511.41;4977922;28;20449;-78
2023/02/02 02:10:22;;;;;;;5.93;2.20;;;;;;;4.49;100.00;152516.56;4965075;28;20466;-78
2023/02/02 02:12:49;;;;;;;2.63;1.63;;;;;;;4.49;100.00;152516.56;4974700;28;20451;-78
2023/02/02 02:18:12;;;;;;;6.50;2.20;;;;;;;4.48;100.00;152513.97;4995458;28;20838;-78
2023/02/02 02:27:20;;;;;;;2.70;1.70;;;;;;;4.56;100.00;152534.59;5013147;28;20472;-78
2023/02/02 02:30:02;;;;;;;2.47;1.50;;;;;;;4.53;100.00;152526.84;4954998;28;20459;-78
2023/02/02 02:32:37;;;;;;;1.77;1.47;;;;;;;4.59;100.00;152541.03;4962128;28;20490;-78
2023/02/02 02:35:10;;;;;;;2.27;1.67;;;;;;;4.62;100.00;152550.06;4949543;28;20450;-78
2023/02/02 02:37:40;;;;;;;5.97;1.77;;;;;;;4.61;100.00;152546.16;4950858;28;21074;-78
2023/02/02 02:40:14;;;;;;;2.53;1.50;;;;;;;4.63;100.00;152552.59;4962037;28;20464;-77
2023/02/02 02:42:45;;;;;;;4.20;1.97;;;;;;;4.57;100.00;152537.19;4960105;28;20944;-78
2023/02/02 02:45:13;;;;;;;4.30;1.40;;;;;;;4.59;100.00;152541.03;4932391;29;20464;-78
2023/02/02 02:47:42;;;;;;;3.40;1.60;;;;;;;4.64;100.00;152555.19;4936520;29;20451;-78
2023/02/02 02:50:10;;;;;;;2.93;1.57;;;;;;;4.66;100.00;152560.34;4964912;28;20451;-78
2023/02/02 02:52:37;;;;;;;5.20;1.80;;;;;;;4.64;100.00;152555.19;4959937;28;20458;-78
2023/02/02 02:55:05;;;;;;;5.77;1.73;;;;;;;4.66;100.00;152560.34;4951403;29;20494;-78
2023/02/02 02:57:52;;;;;;;2.83;1.67;;;;;;;4.64;100.00;152553.91;4952960;28;21072;-78
2023/02/02 03:00:30;;;;;;;2.23;1.67;;;;;;;4.65;100.00;152557.78;4935201;28;21055;-78
2023/02/02 03:03:04;;;;;;;2.80;1.73;;;;;;;4.62;100.00;152548.75;4949467;28;20450;-78
2023/02/02 03:05:33;;;;;;;2.93;1.10;;;;;;;4.68;100.00;152565.53;4953600;28;20528;-78
2023/02/02 03:08:06;;;;;;;2.40;1.40;;;;;;;4.66;100.00;152560.34;4959701;28;20443;-78
2023/02/02 03:10:34;;;;;;;4.23;1.50;;;;;;;4.72;100.00;152575.81;4942715;28;20463;-78
2023/02/02 03:13:00;;;;;;;2.67;1.83;;;;;;;4.71;100.00;152573.22;4957412;28;20461;-78
2023/02/02 03:15:27;;;;;;;3.50;2.03;;;;;;;4.71;100.00;152573.22;4934672;29;20818;-78
2023/02/02 03:17:54;;;;;;;7.30;2.20;;;;;;;4.72;100.00;152574.50;4948599;28;20471;-78
2023/02/02 03:20:22;;;;;;;1.97;1.20;;;;;;;4.72;100.00;152574.50;4954768;28;20459;-78
2023/02/02 03:22:48;;;;;;;3.97;1.50;;;;;;;4.72;100.00;152574.50;4962350;28;20463;-78
2023/02/02 03:25:15;;;;;;;3.60;1.30;;;;;;;4.73;100.00;152578.41;4961794;28;20453;-78
2023/02/02 03:27:42;;;;;;;2.13;1.10;;;;;;;4.75;100.00;152583.56;4932450;28;21012;-78
2023/02/02 03:30:12;;;;;;;1.67;1.20;;;;;;;4.78;100.00;152591.28;4930280;28;20428;-78
2023/02/02 03:32:39;;;;;;;1.80;1.10;;;;;;;4.78;100.00;152590.00;4933315;28;20490;-78
2023/02/02 03:35:06;;;;;;;1.90;1.50;;;;;;;4.76;100.00;152586.16;4950638;28;20494;-78
2023/02/02 03:37:35;;;;;;;2.80;1.50;;;;;;;4.74;100.00;152580.97;4951509;28;20574;-77
2023/02/02 03:40:02;;;;;;;1.77;1.00;;;;;;;4.74;100.00;152580.97;4952691;28;20526;-78
2023/02/02 03:42:29;;;;;;;2.10;1.20;;;;;;;4.77;100.00;152588.69;4953076;28;20510;-78
2023/02/02 03:44:55;;;;;;;1.27;0.70;;;;;;;4.84;100.00;152606.72;4955796;28;20444;-78
2023/02/02 03:47:22;;;;;;;1.80;1.13;;;;;;;4.82;100.00;152601.56;4954819;28;20805;-78
2023/02/02 03:49:48;;;;;;;2.97;1.10;;;;;;;4.81;100.00;152599.03;4936280;29;20542;-77
2023/02/02 03:52:15;;;;;;;2.93;1.20;;;;;;;4.83;100.00;152604.16;4952480;28;20975;-77
2023/02/02 03:54:43;;;;;;;1.50;0.93;;;;;;;4.79;100.00;152593.84;4943275;28;20463;-78
2023/02/02 03:57:10;;;;;;;4.30;1.23;;;;;;;4.78;100.00;152591.28;4961212;28;20447;-78
2023/02/02 03:59:36;;;;;;;2.60;1.40;;;;;;;4.79;100.00;152593.84;4954142;28;20475;-79
2023/02/02 04:02:03;;;;;;;2.83;1.00;;;;;;;4.80;100.00;152595.13;4951450;28;20463;-78
2023/02/02 04:04:30;;;;;;;2.20;1.47;;;;;;;4.76;100.00;152586.16;4936211;28;20466;-78
2023/02/02 04:06:58;;;;;;;3.23;1.40;;;;;;;4.82;100.00;152601.56;4959522;28;20894;-78
2023/02/02 04:09:24;;;;;;;2.67;1.00;;;;;;;4.77;100.00;152588.69;4949709;28;20463;-78
2023/02/02 04:11:52;;;;;;;2.77;1.30;;;;;;;4.76;100.00;152586.16;4950775;29;20802;-78
2023/02/02 04:14:19;;;;;;;5.70;1.30;;;;;;;4.84;100.00;152606.72;4956640;28;20466;-78
2023/02/02 04:16:46;;;;;;;3.90;1.53;;;;;;;4.78;100.00;152590.00;4950611;28;20536;-78
2023/02/02 04:19:12;;;;;;;2.23;1.60;;;;;;;4.77;100.00;152588.69;4945774;28;20463;-78
2023/02/02 04:21:40;;;;;;;1.70;1.40;;;;;;;4.80;100.00;152596.44;4933618;28;20934;-78
2023/02/02 04:24:07;;;;;;;1.90;1.30;;;;;;;4.79;100.00;152592.59;4952815;28;20502;-78
2023/02/02 04:26:34;;;;;;;2.90;1.40;;;;;;;4.83;100.00;152604.16;4924536;29;20807;-78
2023/02/02 04:29:02;;;;;;;2.47;1.33;;;;;;;4.82;100.00;152601.56;4932169;28;20559;-78
2023/02/02 04:31:28;;;;;;;1.90;1.50;;;;;;;4.87;100.00;152613.22;4957636;28;20527;-78
2023/02/02 04:33:55;;;;;;;3.70;2.00;;;;;;;4.88;100.00;152615.75;4951526;29;20466;-78
2023/02/02 04:36:22;;;;;;;1.90;1.40;;;;;;;4.85;100.00;152608.03;4945322;28;20601;-78
2023/02/02 04:38:49;;;;;;;4.90;1.73;;;;;;;4.86;100.00;152611.91;4948993;28;20476;-77
2023/02/02 04:41:17;;;;;;;1.20;0.90;;;;;;;4.87;100.00;152613.22;4934827;29;20463;-78
2023/02/02 04:43:44;;;;;;;2.67;1.40;;;;;;;4.86;100.00;152610.63;4950771;29;20454;-78
2023/02/02 04:46:12;;;;;;;1.83;1.00;;;;;;;4.84;100.00;152606.72;4950237;28;20925;-78
2023/02/02 04:48:50;;;;;;;1.90;1.17;;;;;;;4.87;100.00;152613.22;4957962;28;20470;-77
2023/02/02 04:51:53;;;;;;;2.67;1.73;;;;;;;4.83;100.00;152604.16;4965788;28;20532;-77
2023/02/02 04:57:59;;;;;;;2.20;1.47;;;;;;;4.86;100.00;152611.91;4934463;28;20562;-77
2023/02/02 05:00:30;;;;;;;2.50;1.23;;;;;;;4.85;100.00;152609.31;4955592;28;20455;-77
2023/02/02 05:02:58;;;;;;;2.53;1.37;;;;;;;4.87;100.00;152613.22;4939695;29;20440;-77
2023/02/02 05:05:25;;;;;;;2.07;1.30;;;;;;;4.87;100.00;152613.22;4937280;29;20447;-77
2023/02/02 05:07:52;;;;;;;2.50;1.00;;;;;;;4.83;100.00;152604.16;4955450;29;20444;-76
2023/02/02 05:10:19;;;;;;;3.00;1.63;;;;;;;4.89;100.00;152619.66;4937617;28;20598;-77
2023/02/02 05:12:45;;;;;;;3.67;1.80;;;;;;;4.88;100.00;152615.75;4952568;28;20818;-76
2023/02/02 05:15:12;;;;;;;2.60;1.70;;;;;;;4.87;100.00;152614.47;4937809;29;20443;-77
2023/02/02 05:17:39;;;;;;;5.40;1.50;;;;;;;4.84;100.00;152606.72;4940841;28;20443;-77
2023/02/02 05:20:08;;;;;;;3.03;1.50;;;;;;;4.87;100.00;152614.47;4950366;28;21024;-76
2023/02/02 05:22:35;;;;;;;3.00;1.90;;;;;;;4.95;100.00;152632.53;4954505;28;20458;-77
2023/02/02 05:25:01;;;;;;;2.27;1.30;;;;;;;4.92;100.00;152627.34;4954742;28;20483;-78
2023/02/02 05:27:28;;;;;;;4.87;1.50;;;;;;;4.87;100.00;152613.22;4955356;29;21032;-78
2023/02/02 05:29:55;;;;;;;2.00;1.53;;;;;;;4.89;100.00;152619.66;4937442;29;20452;-78
2023/02/02 05:32:21;;;;;;;4.20;1.77;;;;;;;4.90;100.00;152622.19;4941136;29;20475;-78
2023/02/02 05:34:48;;;;;;;2.50;1.47;;;;;;;4.89;100.00;152618.34;4955149;28;20531;-78
2023/02/02 05:37:16;;;;;;;2.63;1.50;;;;;;;4.90;100.00;152622.19;4953403;28;20454;-77
2023/02/02 05:39:43;;;;;;;3.80;2.13;;;;;;;4.90;100.00;152622.19;4950735;28;20486;-78
2023/02/02 05:42:10;;;;;;;3.60;1.97;;;;;;;4.95;100.00;152632.53;4949797;28;20493;-78
2023/02/02 05:44:36;;;;;;;2.67;1.90;;;;;;;4.95;100.00;152632.53;4934103;28;20523;-78
2023/02/02 05:47:08;;;;;;;2.07;1.60;;;;;;;4.95;100.00;152632.53;4953301;28;20554;-78
2023/02/02 05:49:35;;;;;;;4.90;1.80;;;;;;;4.89;100.00;152619.66;4941178;28;20467;-78
2023/02/02 05:52:01;;;;;;;2.40;1.60;;;;;;;4.90;100.00;152622.19;4950927;28;20851;-78
2023/02/02 05:54:29;;;;;;;4.53;2.03;;;;;;;5.00;100.00;152646.72;4934614;29;21032;-78
2023/02/02 05:56:59;;;;;;;3.40;2.00;;;;;;;4.96;100.00;152636.38;4959466;28;20890;-78
2023/02/02 05:59:28;;;;;;;5.27;1.73;;;;;;;4.97;100.00;152637.69;4951261;28;20482;-78
2023/02/02 06:01:54;;;;;;;2.73;1.67;;;;;;;4.94;100.00;152631.22;4936580;29;20471;-78
2023/02/02 06:04:21;;;;;;;2.87;1.70;;;;;;;4.99;100.00;152642.81;4939751;28;20551;-77
2023/02/02 06:06:48;;;;;;;3.17;1.70;;;;;;;4.99;100.00;152644.13;4942663;28;20458;-77
2023/02/02 06:09:14;;;;;;;4.20;2.00;;;;;;;4.97;100.00;152638.97;4946583;28;20456;-78
2023/02/02 06:11:44;;;;;;;2.33;1.80;;;;;;;4.99;100.00;152644.13;4951324;28;20451;-78
2023/02/02 06:14:11;;;;;;;3.73;1.87;;;;;;;5.04;100.00;152655.69;4941367;28;20475;-78
2023/02/02 06:16:37;;;;;;;2.63;2.20;;;;;;;4.99;100.00;152644.13;4955993;28;20951;-78
2023/02/02 06:19:04;;;;;;;1.97;1.50;;;;;;;4.95;100.00;152632.53;4956680;28;20579;-77
2023/02/02 06:21:31;;;;;;;4.40;1.90;;;;;;;4.94;100.00;152631.22;4957556;28;20461;-76
2023/02/02 06:23:58;;;;;;;3.53;1.90;;;;;;;4.93;100.00;152629.94;4958196;28;20481;-78
2023/02/02 06:26:25;;;;;;;6.67;2.23;;;;;;;4.92;100.00;152627.34;4930147;28;20900;-78
2023/02/02 06:28:54;;;;;;;5.60;2.00;;;;;;;4.99;100.00;152642.81;4955312;28;20459;-78
2023/02/02 06:31:21;;;;;;;3.13;2.10;;;;;;;4.99;100.00;152644.13;4953003;28;20468;-78
2023/02/02 06:33:48;;;;;;;4.73;2.70;;;;;;;4.96;100.00;152635.06;4957712;28;20925;-78
2023/02/02 06:36:15;;;;;;;4.00;2.57;;;;;;;5.04;100.00;152655.69;4939963;28;20589;-78
2023/02/02 06:38:42;;;;;;;4.43;2.30;;;;;;;5.04;100.00;152655.69;4953528;28;20509;-78
2023/02/02 06:41:08;;;;;;;3.40;1.90;;;;;;;5.01;100.00;152647.97;4955585;28;20558;-78
2023/02/02 06:43:36;;;;;;;2.50;1.87;;;;;;;5.02;100.00;152650.56;4933795;29;20506;-78
2023/02/02 06:46:04;;;;;;;2.97;2.53;;;;;;;5.05;100.00;152658.31;4921695;28;20459;-78
2023/02/02 06:48:31;;;;;;;5.30;2.23;;;;;;;5.01;100.00;152649.25;4956978;28;20507;-78
2023/02/02 06:50:59;;;;;;;2.60;2.00;;;;;;;4.99;100.00;152642.81;4958786;28;20452;-78
2023/02/02 06:53:26;;;;;;;3.13;1.90;;;;;;;4.96;100.00;152635.06;4959376;28;20458;-78
2023/02/02 06:55:54;;;;;;;6.00;1.87;;;;;;;4.96;100.00;152635.06;4941014;28;20567;-79
2023/02/02 06:58:20;;;;;;;3.33;2.30;;;;;;;4.93;100.00;152629.94;4958795;28;20448;-78
2023/02/02 07:00:47;;;;;;;2.77;1.90;;;;;;;4.95;100.00;152632.53;4952324;28;20454;-78
2023/02/02 07:03:15;;;;;;;3.13;2.40;;;;;;;4.94;100.00;152631.22;4964547;28;20459;-78
2023/02/02 07:05:42;;;;;;;4.07;2.33;;;;;;;5.00;100.00;152645.41;4953846;28;20458;-78
2023/02/02 07:08:08;;;;;;;4.10;1.70;;;;;;;5.04;100.00;152657.00;4948321;28;20980;-78
2023/02/02 07:10:36;;;;;;;2.40;1.93;;;;;;;5.01;100.00;152649.25;4948502;28;20550;-78
2023/02/02 07:13:03;;;;;;;3.07;1.90;;;;;;;5.00;100.00;152645.41;4964442;28;20530;-78
2023/02/02 07:15:30;;;;;;;3.53;1.57;;;;;;;5.03;100.00;152653.16;4931551;28;20465;-78
2023/02/02 07:17:57;;;;;;;1.97;1.67;;;;;;;5.02;100.00;152650.56;4949514;28;20546;-78
2023/02/02 07:20:25;;;;;;;1.87;1.47;;;;;;;5.00;100.00;152645.41;4945942;28;20473;-78
2023/02/02 07:22:52;;;;;;;2.57;1.93;;;;;;;5.04;100.00;152655.69;4954382;28;20449;-78
2023/02/02 07:25:18;;;;;;;3.30;1.60;;;;;;;5.04;100.00;152657.00;4947225;28;20553;-78
2023/02/02 07:27:46;;;;;;;2.60;1.27;;;;;;;5.06;100.00;152662.16;4950258;28;20482;-78
2023/02/02 07:30:14;;;;;;;2.60;1.40;;;;;;;5.03;100.00;152653.16;4949926;28;21178;-78
2023/02/02 07:32:46;;;;;;;1.73;1.50;;;;;;;5.02;100.00;152650.56;4946596;28;20512;-78
2023/02/02 07:35:13;;;;;;;4.03;1.57;;;;;;;5.03;100.00;152653.16;4949882;28;20541;-78
2023/02/02 07:37:41;;;;;;;2.77;1.67;;;;;;;5.08;100.00;152666.03;4926812;28;20443;-78
2023/02/02 07:40:09;;;;;;;3.93;1.50;;;;;;;5.05;100.00;152659.59;4930339;28;20495;-78
2023/02/02 07:42:36;;;;;;;3.40;1.67;;;;;;;5.03;100.00;152654.41;4910690;28;20486;-78
2023/02/02 07:45:04;;;;;;;5.10;1.53;;;;;;;5.02;100.00;152650.56;4950772;28;20453;-78
2023/02/02 07:47:31;;;;;;;3.00;1.67;;;;;;;5.07;100.00;152664.75;4965193;28;20469;-78
2023/02/02 07:49:57;;;;;;;4.10;1.90;;;;;;;5.06;100.00;152660.84;4950040;28;20541;-78
2023/02/02 07:52:24;;;;;;;3.90;1.90;;;;;;;5.12;100.00;152676.31;4962295;28;20865;-78
2023/02/02 07:54:52;;;;;;;2.73;1.80;;;;;;;5.18;100.00;152691.81;4948696;28;20441;-78
2023/02/02 07:57:19;;;;;;;8.07;2.57;;;;;;;5.11;100.00;152673.78;4964244;28;20580;-78
2023/02/02 07:59:45;;;;;;;6.97;1.80;;;;;;;5.08;100.00;152667.34;4943832;28;21184;-78
2023/02/02 08:02:12;;;;;;;3.17;1.90;;;;;;;5.08;100.00;152666.03;4929418;28;20463;-78
2023/02/02 08:04:39;;;;;;;7.33;2.07;;;;;;;5.09;100.00;152668.59;4935543;28;20912;-78
2023/02/02 08:07:05;;;;;;;3.50;2.20;;;;;;;5.14;100.00;152682.78;4921912;28;20454;-78
2023/02/02 08:09:32;;;;;;;2.57;1.90;;;;;;;5.12;100.00;152676.31;4948582;28;20459;-78
2023/02/02 08:12:01;;;;;;;11.57;2.50;;;;;;;5.15;100.00;152685.38;4952950;28;20455;-78
2023/02/02 08:14:28;;;;;;;3.57;1.73;;;;;;;5.14;100.00;152682.78;4937871;28;20611;-78
2023/02/02 08:16:55;;;;;;;3.20;2.00;;;;;;;5.15;100.00;152685.38;4947542;28;20465;-78
2023/02/02 08:19:21;;;;;;;3.17;2.03;;;;;;;5.15;100.00;152685.38;4950333;28;21003;-78
2023/02/02 08:21:48;;;;;;;3.47;2.27;;;;;;;5.15;100.00;152684.06;4937844;28;20508;-78
2023/02/02 08:24:15;;;;;;;3.83;1.90;;;;;;;5.21;100.00;152699.56;4952075;28;20458;-78
2023/02/02 08:26:42;;;;;;;7.80;2.60;;;;;;;5.20;100.00;152696.94;4950796;28;20452;-78
2023/02/02 08:29:10;;;;;;;4.87;2.13;;;;;;;5.21;100.00;152700.84;4934883;28;20451;-78
2023/02/02 08:31:38;;;;;;;3.03;1.80;;;;;;;5.18;100.00;152691.81;4947225;28;20465;-78
2023/02/02 08:34:05;;;;;;;2.60;2.23;;;;;;;5.21;100.00;152699.56;4957950;28;20558;-78
2023/02/02 08:36:34;;;;;;;3.83;2.20;;;;;;;5.19;100.00;152695.66;4934458;28;20471;-78
2023/02/02 08:39:01;;;;;;;3.03;2.00;;;;;;;5.19;100.00;152694.41;4954874;28;20916;-78
2023/02/02 08:41:28;;;;;;;2.40;1.90;;;;;;;5.20;100.00;152698.25;4949322;28;20486;-76
2023/02/02 08:43:55;;;;;;;2.40;1.77;;;;;;;5.28;100.00;152717.59;4952010;28;20457;-78
2023/02/02 08:46:23;;;;;;;2.87;2.20;;;;;;;5.30;100.00;152724.03;4953271;28;20465;-78
2023/02/02 08:48:49;;;;;;;4.90;2.40;;;;;;;5.28;100.00;152718.88;4955956;28;20454;-78
2023/02/02 08:51:17;;;;;;;3.47;2.40;;;;;;;5.30;100.00;152724.03;4947394;28;21002;-78
2023/02/02 08:53:44;;;;;;;3.70;2.00;;;;;;;5.27;100.00;152715.03;4934549;28;20462;-78
2023/02/02 08:56:12;;;;;;;3.33;2.07;;;;;;;5.28;100.00;152718.88;4948743;28;20476;-78
2023/02/02 08:58:39;;;;;;;5.10;2.17;;;;;;;5.31;100.00;152725.31;4950761;28;20455;-78
2023/02/02 09:01:07;;;;;;;3.53;1.70;;;;;;;5.32;100.00;152727.91;4935851;28;20531;-78
2023/02/02 09:03:37;;;;;;;3.20;2.00;;;;;;;5.30;100.00;152724.03;4942145;28;20483;-78
2023/02/02 09:06:05;;;;;;;3.83;2.33;;;;;;;5.32;100.00;152727.91;4953542;28;20458;-78
2023/02/02 09:08:32;;;;;;;4.10;2.20;;;;;;;5.32;100.00;152727.91;4951471;28;20486;-78
2023/02/02 09:11:03;;;;;;;3.93;2.30;;;;;;;5.31;100.00;152725.31;4963717;28;20451;-78
2023/02/02 09:13:30;;;;;;;3.90;1.90;;;;;;;5.31;100.00;152725.31;4958475;28;20455;-78
2023/02/02 09:15:59;;;;;;;3.93;2.30;;;;;;;5.29;100.00;152721.47;4962246;28;20464;-78
2023/02/02 09:18:26;;;;;;;7.23;2.37;;;;;;;5.32;100.00;152727.91;4936950;28;20920;-78
2023/02/02 09:20:54;;;;;;;2.40;1.80;;;;;;;5.35;100.00;152735.63;4946042;28;20479;-78
2023/02/02 09:23:21;;;;;;;3.77;2.00;;;;;;;5.37;100.00;152740.81;4952278;28;20481;-78
2023/02/02 09:25:48;;;;;;;2.83;2.03;;;;;;;5.43;100.00;152756.25;4953037;28;20517;-78
2023/02/02 09:28:14;;;;;;;4.00;2.03;;;;;;;5.44;100.00;152758.84;4932672;28;20847;-78
2023/02/02 09:30:41;;;;;;;3.67;2.20;;;;;;;5.52;100.00;152780.78;4950325;28;20478;-78
2023/02/02 09:33:08;;;;;;;3.93;2.30;;;;;;;5.57;100.00;152791.06;4953037;28;20467;-78
2023/02/02 09:35:34;;;;;;;4.30;3.23;;;;;;;5.61;100.00;152802.72;4945984;28;20474;-78
2023/02/02 09:38:02;;;;;;;4.93;2.60;;;;;;;5.68;100.00;152820.75;4966958;28;20458;-78
2023/02/02 09:40:31;;;;;;;3.23;2.43;;;;;;;5.69;100.00;152823.34;4965657;28;20485;-78
2023/02/02 09:43:06;;;;;;;4.63;2.50;;;;;;;5.71;100.00;152828.47;4951217;28;20476;-78
2023/02/02 09:45:39;;;;;;;5.20;2.20;;;;;;;5.73;100.00;152832.34;4956545;28;20486;-78
2023/02/02 09:48:15;;;;;;;8.73;2.67;;;;;;;5.74;100.00;152834.94;4931863;28;21823;-78
2023/02/02 09:50:46;;;;;;;6.03;3.07;;;;;;;5.75;100.00;152837.47;4935132;28;20452;-77
2023/02/02 09:53:21;;;;;;;2.83;2.20;;;;;;;5.75;100.00;152838.78;4932510;28;20807;-78
2023/02/02 09:55:48;;;;;;;5.03;2.27;;;;;;;5.77;100.00;152842.69;4945660;28;20491;-78
2023/02/02 09:58:19;;;;;;;7.60;3.03;;;;;;;5.72;100.00;152831.03;4950527;28;20458;-78
2023/02/02 10:00:51;;;;;;;4.40;2.67;;;;;;;5.76;100.00;152841.38;4930679;28;20901;-77
2023/02/02 10:03:21;;;;;;;4.53;2.60;;;;;;;5.69;100.00;152823.34;4953468;28;20464;-78
2023/02/02 10:05:53;;;;;;;4.10;3.00;;;;;;;5.72;100.00;152831.03;4957115;28;20455;-77
2023/02/02 10:08:27;;;;;;;4.33;2.80;;;;;;;5.68;100.00;152820.75;4948366;28;20518;-78
2023/02/02 10:10:54;;;;;;;7.07;2.30;;;;;;;5.73;100.00;152833.63;4964863;28;20442;-78
2023/02/02 10:13:25;;;;;;;4.90;2.67;;;;;;;5.67;100.00;152816.84;4948015;28;20534;-78
2023/02/02 10:15:58;;;;;;;3.40;2.50;;;;;;;5.72;100.00;152831.03;4949540;28;20816;-78
2023/02/02 10:18:32;;;;;;;4.13;2.37;;;;;;;5.71;100.00;152828.47;4948427;28;22033;-78
2023/02/02 10:21:02;;;;;;;6.33;3.33;;;;;;;5.74;100.00;152836.22;4966876;28;20483;-78
2023/02/02 10:23:33;;;;;;;3.83;2.33;;;;;;;5.71;100.00;152827.19;4943235;28;20480;-78
2023/02/02 10:26:04;;;;;;;5.83;2.90;;;;;;;5.75;100.00;152838.78;4925628;28;20511;-78
2023/02/02 10:28:42;;;;;;;6.57;2.60;;;;;;;5.88;100.00;152871.06;4964819;28;20957;-78
2023/02/02 10:31:18;;;;;;;3.40;2.80;;;;;;;5.75;100.00;152838.78;4946383;28;20453;-78
2023/02/02 10:33:52;;;;;;;4.77;2.30;;;;;;;5.74;100.00;152836.22;4948703;28;20554;-78
2023/02/02 10:36:24;;;;;;;2.23;2.03;;;;;;;5.74;100.00;152836.22;4954272;28;20562;-78
2023/02/02 10:39:00;;;;;;;4.40;2.30;;;;;;;5.74;100.00;152836.22;4959102;28;20785;-78
2023/02/02 10:41:34;;;;;;;3.33;2.20;;;;;;;5.72;100.00;152829.78;4955931;28;20487;-78
2023/02/02 10:44:09;;;;;;;5.00;2.40;;;;;;;5.79;100.00;152847.81;4932777;28;20450;-78
2023/02/02 10:46:39;;;;;;;5.53;2.30;;;;;;;5.77;100.00;152843.94;4944764;28;20455;-78
2023/02/02 10:49:15;;;;;;;5.77;2.00;;;;;;;5.72;100.00;152831.03;4947103;28;20448;-78
2023/02/02 10:51:46;;;;;;;6.07;3.03;;;;;;;5.74;100.00;152836.22;4968939;28;20557;-78
2023/02/02 10:54:25;;;;;;;8.00;3.33;;;;;;;5.77;100.00;152843.94;4955668;28;20443;-78
2023/02/02 10:56:54;;;;;;;3.30;2.00;;;;;;;5.79;100.00;152849.13;4946408;28;20487;-78
2023/02/02 10:59:24;;;;;;;4.17;2.47;;;;;;;5.83;100.00;152859.41;4945403;28;20452;-78
2023/02/02 11:01:51;;;;;;;3.40;2.50;;;;;;;5.86;100.00;152865.91;4934243;28;20487;-78
2023/02/02 11:07:02;;;;;;;2.90;2.10;;;;;;;5.84;100.00;152862.00;4955031;28;20455;-78
2023/02/02 11:09:35;;;;;;;6.43;2.40;;;;;;;5.78;100.00;152846.53;4971948;28;20501;-77
2023/02/02 11:12:05;;;;;;;3.50;2.30;;;;;;;5.77;100.00;152842.69;4950458;28;20552;-78
2023/02/02 11:14:37;;;;;;;2.70;2.33;;;;;;;5.79;100.00;152849.13;4933479;28;20453;-77
2023/02/02 11:17:06;;;;;;;3.20;1.97;;;;;;;5.77;100.00;152843.94;4944535;28;21037;-78
2023/02/02 11:19:34;;;;;;;4.50;2.50;;;;;;;5.79;100.00;152847.81;4948328;28;20595;-78
2023/02/02 11:22:02;;;;;;;6.40;2.40;;;;;;;5.88;100.00;152872.34;4946279;28;20478;-78
2023/02/02 11:24:35;;;;;;;3.40;2.47;;;;;;;5.85;100.00;152864.63;4947975;28;20455;-78
2023/02/02 11:27:03;;;;;;;3.83;2.47;;;;;;;5.85;100.00;152863.38;4929584;29;20436;-78
2023/02/02 11:29:32;;;;;;;6.90;2.30;;;;;;;5.88;100.00;152872.34;4930919;28;20451;-78
2023/02/02 11:32:18;;;;;;;4.90;2.43;;;;;;;5.88;100.00;152871.06;4931923;29;20456;-78
2023/02/02 11:34:44;;;;;;;4.53;2.40;;;;;;;5.86;100.00;152867.22;4949946;28;20560;-78
2023/02/02 11:37:13;;;;;;;4.23;2.50;;;;;;;5.92;100.00;152882.69;4949473;28;20448;-78
2023/02/02 11:39:41;;;;;;;2.87;2.13;;;;;;;5.92;100.00;152882.69;4950120;28;20466;-78
2023/02/02 11:42:14;;;;;;;4.80;2.40;;;;;;;6.00;100.00;152903.34;4949354;28;20493;-78
2023/02/02 11:44:44;;;;;;;3.20;2.57;;;;;;;6.00;100.00;152902.03;4928888;28;20451;-78
2023/02/02 11:47:19;;;;;;;4.33;2.57;;;;;;;6.01;100.00;152905.88;4926750;29;20909;-78